Terminal Aerodrome Forecast
Issued by NWS Northern Indiana

Home | Current Version | Previous Version | Graphics & Text | Print | Product List | Glossary On
Versions: 1 2 3 4 5 6 7 8 9 10 11 12 13 14 15
000
FTUS43 KIWX 301700
TAFFWA
TAF
KFWA 301734Z 3018/0118 34009KT P6SM OVC012
     FM302100 01005KT P6SM BKN015
     FM010700 VRB03KT 4SM BR BKN008
     FM011500 09005KT P6SM SCT015=

USA.gov is the U.S. government's official web portal to all federal, state and local government web resources and services.